Time;durP1;ratioP1;P1;durP2;ratioP2;P2;SDS_P1;SDS_P2;PMS_P1;PMS_P2;Temp;Humidity;BMP_temperature;BMP_pressure;BME280_temperature;BME280_humidity;BME280_pressure;Samples;Min_cycle;Max_cycle;Signal;HPM_P1;HPM_P2
2024/03/02 00:00:02;;;;;;;41.15;19.38;;;;;;;8.85;95.80;99333.13;5049957;28;20033;-41
2024/03/02 00:02:28;;;;;;;41.67;19.13;;;;;;;8.94;94.90;99337.22;5049869;28;20036;-39
2024/03/02 00:04:54;;;;;;;48.00;20.00;;;;;;;8.90;94.47;99332.53;5049992;28;20025;-37
2024/03/02 00:07:19;;;;;;;40.03;19.42;;;;;;;8.70;95.65;99328.03;5050039;28;20021;-36
2024/03/02 00:09:44;;;;;;;42.08;19.42;;;;;;;8.71;96.53;99329.66;5049693;28;20095;-38
2024/03/02 00:12:15;;;;;;;43.92;19.85;;;;;;;8.36;97.42;99326.28;5050201;28;20040;-36
2024/03/02 00:14:41;;;;;;;44.33;19.15;;;;;;;8.11;98.75;99326.81;5053533;28;20449;-38
2024/03/02 00:17:21;;;;;;;44.58;20.17;;;;;;;8.26;99.02;99321.31;5053594;28;20612;-36
2024/03/02 00:19:46;;;;;;;47.92;20.55;;;;;;;8.44;97.91;99322.66;5053484;28;20037;-35
2024/03/02 00:22:12;;;;;;;44.83;19.35;;;;;;;8.31;97.51;99320.75;5053337;28;20025;-38
2024/03/02 00:24:39;;;;;;;45.85;20.13;;;;;;;8.48;97.59;99323.91;5053426;28;20040;-39
2024/03/02 00:27:07;;;;;;;42.63;20.23;;;;;;;8.39;97.45;99316.06;5053544;28;20039;-39
2024/03/02 00:29:32;;;;;;;46.00;20.15;;;;;;;8.38;97.85;99316.28;5053219;28;20370;-38
2024/03/02 00:31:58;;;;;;;42.50;19.48;;;;;;;8.26;97.95;99318.69;5053241;28;20108;-39
2024/03/02 00:34:24;;;;;;;48.67;20.52;;;;;;;8.29;97.30;99320.13;5053134;28;20028;-38
2024/03/02 00:36:50;;;;;;;48.22;19.95;;;;;;;8.27;98.04;99311.56;5053410;28;20071;-39
2024/03/02 00:39:17;;;;;;;44.72;18.88;;;;;;;8.17;98.19;99318.06;5053246;28;20461;-39
2024/03/02 00:41:43;;;;;;;48.90;20.10;;;;;;;8.47;97.33;99309.78;5052878;28;20099;-38
2024/03/02 00:44:11;;;;;;;48.13;20.40;;;;;;;8.39;97.51;99300.16;5053306;28;20040;-39
2024/03/02 00:46:41;;;;;;;43.77;20.70;;;;;;;8.20;98.48;99298.28;5053001;28;20033;-26
2024/03/02 00:49:09;;;;;;;;;;;;;;;8.43;98.42;99300.63;5036056;28;20037;-26
2024/03/02 00:51:35;;;;;;;55.72;21.33;;;;;;;8.58;96.77;99301.25;5033603;28;19915;-26
2024/03/02 00:54:04;;;;;;;51.35;20.52;;;;;;;8.50;97.12;99306.75;5033441;28;20029;-26
2024/03/02 00:56:30;;;;;;;50.08;19.95;;;;;;;8.01;99.44;99297.19;5033645;28;20394;-26
2024/03/02 00:58:55;;;;;;;52.75;21.77;;;;;;;7.85;100.00;99297.53;5033909;28;20033;-26
2024/03/02 01:01:21;;;;;;;52.28;21.98;;;;;;;7.90;100.00;99287.97;5033452;28;20465;-26
2024/03/02 01:03:46;;;;;;;54.10;23.00;;;;;;;7.97;100.00;99280.84;5033414;28;20094;-26
2024/03/02 01:06:12;;;;;;;57.85;23.15;;;;;;;8.13;100.00;99281.53;5033661;28;20029;-26
2024/03/02 01:08:38;;;;;;;58.17;22.50;;;;;;;8.15;100.00;99276.88;5033589;28;20032;-25
2024/03/02 01:11:04;;;;;;;59.42;24.00;;;;;;;8.39;99.48;99270.19;5033814;28;20038;-26
2024/03/02 01:13:30;;;;;;;55.38;23.42;;;;;;;8.33;98.55;99274.44;5033361;28;20469;-26
2024/03/02 01:15:56;;;;;;;57.15;22.95;;;;;;;8.52;97.79;99272.91;5033590;28;20120;-26
2024/03/02 01:18:22;;;;;;;66.47;25.13;;;;;;;8.51;98.53;99276.56;5033533;28;20032;-26
2024/03/02 01:20:48;;;;;;;68.30;24.52;;;;;;;8.23;99.20;99271.38;5053180;28;20082;-26
2024/03/02 01:23:13;;;;;;;63.40;24.38;;;;;;;8.35;99.09;99267.13;5052936;28;20460;-25
2024/03/02 01:25:39;;;;;;;66.80;24.25;;;;;;;8.25;99.58;99272.00;5052487;28;20059;-26
2024/03/02 01:28:05;;;;;;;66.10;24.17;;;;;;;8.03;99.86;99271.28;5053568;28;20029;-26
2024/03/02 01:30:30;;;;;;;64.07;23.75;;;;;;;8.22;99.87;99267.06;5051602;28;20120;-26
2024/03/02 01:32:56;;;;;;;72.95;23.85;;;;;;;8.29;99.00;99267.91;5053385;28;20111;-26
2024/03/02 01:35:21;;;;;;;71.65;24.38;;;;;;;8.26;100.00;99267.50;5052932;28;20031;-26
2024/03/02 01:37:46;;;;;;;76.18;24.70;;;;;;;8.48;98.89;99268.22;5051233;28;20064;-39
2024/03/02 01:40:12;;;;;;;68.85;25.75;;;;;;;8.39;99.31;99268.34;5052682;28;20063;-40
2024/03/02 01:42:38;;;;;;;77.60;25.50;;;;;;;8.31;99.65;99275.69;5052773;28;20031;-38
2024/03/02 01:45:07;;;;;;;84.53;25.98;;;;;;;8.52;99.51;99275.53;5052354;28;20075;-37
2024/03/02 01:47:33;;;;;;;74.50;23.48;;;;;;;8.31;99.62;99273.84;5048751;28;20025;-36
2024/03/02 01:49:59;;;;;;;71.35;24.65;;;;;;;8.27;100.00;99266.50;5032825;28;20036;-38
2024/03/02 01:52:25;;;;;;;70.80;25.27;;;;;;;8.30;99.57;99258.13;5032913;28;20037;-39
2024/03/02 01:54:50;;;;;;;75.15;25.33;;;;;;;8.34;99.71;99270.78;5032320;28;20462;-35
2024/03/02 01:57:16;;;;;;;69.93;24.67;;;;;;;8.35;100.00;99268.97;5032215;28;20026;-37
2024/03/02 01:59:41;;;;;;;78.57;23.95;;;;;;;8.19;100.00;99270.16;5032310;28;20025;-37
2024/03/02 02:02:07;;;;;;;69.63;24.63;;;;;;;8.35;100.00;99268.97;5032120;28;20092;-40
2024/03/02 02:04:33;;;;;;;66.53;23.77;;;;;;;8.12;100.00;99264.00;5032241;28;20021;-36
2024/03/02 02:06:59;;;;;;;60.95;22.02;;;;;;;8.05;100.00;99268.47;5032747;28;20029;-36
2024/03/02 02:09:24;;;;;;;60.08;21.63;;;;;;;7.94;100.00;99264.53;5032626;28;20120;-36
2024/03/02 02:11:50;;;;;;;59.15;22.88;;;;;;;8.10;100.00;99261.53;5032078;28;20025;-38
2024/03/02 02:14:16;;;;;;;54.70;20.55;;;;;;;8.18;100.00;99255.25;5031242;28;20036;-39
2024/03/02 02:16:44;;;;;;;45.83;19.73;;;;;;;8.17;100.00;99258.94;5032355;28;20378;-38
2024/03/02 02:19:10;;;;;;;53.40;21.92;;;;;;;8.19;100.00;99259.53;5032371;28;20018;-38
2024/03/02 02:21:35;;;;;;;51.75;21.13;;;;;;;8.32;100.00;99259.56;5032169;28;20519;-39
2024/03/02 02:24:03;;;;;;;50.65;20.80;;;;;;;8.36;100.00;99263.47;5052011;28;20473;-36
2024/03/02 02:26:28;;;;;;;52.85;21.27;;;;;;;8.43;100.00;99252.88;5038737;28;20046;-39
2024/03/02 02:28:54;;;;;;;51.35;20.65;;;;;;;8.32;100.00;99256.09;5031700;28;20029;-39
2024/03/02 02:31:19;;;;;;;48.83;19.55;;;;;;;8.26;100.00;99257.69;5050331;28;20032;-36
2024/03/02 02:33:45;;;;;;;46.58;19.35;;;;;;;8.14;100.00;99257.47;5051715;28;20040;-38
2024/03/02 02:36:10;;;;;;;53.97;20.40;;;;;;;8.32;100.00;99256.09;5050583;28;20036;-36
2024/03/02 02:38:40;;;;;;;50.97;20.15;;;;;;;8.39;100.00;99257.72;5051117;28;20473;-39
2024/03/02 02:41:05;;;;;;;45.92;19.30;;;;;;;8.53;99.13;99255.13;5051854;28;20013;-39
2024/03/02 02:43:30;;;;;;;45.10;19.58;;;;;;;8.30;99.83;99251.00;5051883;28;20507;-39
2024/03/02 02:45:56;;;;;;;50.03;20.67;;;;;;;8.38;100.00;99252.66;5051447;28;20025;-39
2024/03/02 02:48:21;;;;;;;47.90;20.20;;;;;;;8.45;100.00;99258.78;5051361;28;20020;-39
2024/03/02 02:50:47;;;;;;;48.90;20.63;;;;;;;8.15;100.00;99250.38;5051051;28;20029;-39
2024/03/02 02:53:12;;;;;;;52.70;21.23;;;;;;;8.20;100.00;99250.56;5051430;28;20025;-40
2024/03/02 02:55:40;;;;;;;49.40;22.02;;;;;;;8.31;100.00;99249.97;5051265;28;20016;-39
2024/03/02 02:58:08;;;;;;;51.65;20.63;;;;;;;8.19;100.00;99255.06;5051355;28;20104;-37
2024/03/02 03:00:33;;;;;;;48.13;20.45;;;;;;;8.14;100.00;99225.66;5050649;28;20207;-39
2024/03/02 03:02:59;;;;;;;49.55;20.42;;;;;;;8.14;100.00;99254.81;5050585;28;20112;-38
2024/03/02 03:05:24;;;;;;;48.53;21.15;;;;;;;8.20;100.00;99245.25;5048307;28;20024;-39
2024/03/02 03:07:50;;;;;;;44.63;20.38;;;;;;;8.38;100.00;99255.31;5030688;28;20017;-39
2024/03/02 03:10:16;;;;;;;50.85;20.70;;;;;;;8.23;100.00;99248.34;5030955;28;20052;-38
2024/03/02 03:12:42;;;;;;;47.70;20.20;;;;;;;7.99;100.00;99259.47;5031207;28;20032;-39
2024/03/02 03:15:09;;;;;;;49.33;19.80;;;;;;;8.05;100.00;99237.47;5031033;28;20048;-38
2024/03/02 03:17:35;;;;;;;47.25;19.60;;;;;;;8.08;100.00;99258.28;5046662;28;20492;-36
2024/03/02 03:20:03;;;;;;;57.83;22.45;;;;;;;8.20;100.00;99235.47;5051085;28;20020;-38
2024/03/02 03:22:29;;;;;;;56.30;21.90;;;;;;;8.23;100.00;99229.78;5051067;28;20025;-38
2024/03/02 03:24:54;;;;;;;52.67;20.60;;;;;;;8.32;100.00;99256.94;5047048;28;20103;-39
2024/03/02 03:27:20;;;;;;;48.10;20.33;;;;;;;7.97;100.00;99243.75;5031073;28;20083;-39
2024/03/02 03:29:46;;;;;;;52.40;21.25;;;;;;;8.10;100.00;99242.19;5031115;28;20033;-39
2024/03/02 03:32:11;;;;;;;50.45;20.23;;;;;;;8.22;100.00;99237.91;5031191;28;20022;-37
2024/03/02 03:34:36;;;;;;;51.10;20.90;;;;;;;8.02;100.00;99229.94;5030707;28;20052;-39
2024/03/02 03:37:03;;;;;;;47.10;20.55;;;;;;;8.25;100.00;99234.06;5030310;28;20033;-39
2024/03/02 03:39:28;;;;;;;46.90;19.90;;;;;;;8.16;100.00;99214.88;5031184;28;20032;-40
2024/03/02 03:41:54;;;;;;;48.28;21.15;;;;;;;8.52;100.00;99241.06;5030677;28;20116;-41
2024/03/02 03:44:19;;;;;;;49.72;20.02;;;;;;;8.34;100.00;99244.28;5030848;28;20034;-40
2024/03/02 03:46:44;;;;;;;47.53;19.77;;;;;;;8.34;100.00;99240.78;5031169;28;20026;-39
2024/03/02 03:49:10;;;;;;;47.75;20.27;;;;;;;8.57;100.00;99243.13;5035177;28;20026;-39
2024/03/02 03:51:35;;;;;;;53.20;22.23;;;;;;;8.48;100.00;99242.50;5034746;28;20441;-39
2024/03/02 03:54:01;;;;;;;53.83;21.02;;;;;;;8.50;100.00;99232.50;5034872;28;20105;-38
2024/03/02 03:56:26;;;;;;;52.65;20.63;;;;;;;8.32;100.00;99229.56;5034544;28;20116;-39
2024/03/02 03:58:52;;;;;;;59.67;23.27;;;;;;;8.44;100.00;99246.56;5034692;28;20040;-38
2024/03/02 04:01:17;;;;;;;58.47;22.45;;;;;;;8.53;100.00;99241.88;5034498;28;20063;-38
2024/03/02 04:03:43;;;;;;;60.67;24.50;;;;;;;8.69;100.00;99246.00;5034468;28;20025;-36
2024/03/02 04:06:08;;;;;;;59.28;23.77;;;;;;;8.74;100.00;99246.22;5034327;28;20040;-39
2024/03/02 04:08:34;;;;;;;55.15;23.98;;;;;;;8.61;100.00;99250.47;5034468;28;20036;-38
2024/03/02 04:10:59;;;;;;;56.88;24.48;;;;;;;8.52;100.00;99253.53;5034620;28;20029;-39
2024/03/02 04:13:24;;;;;;;56.03;23.27;;;;;;;8.38;100.00;99252.66;5034157;28;20458;-37
2024/03/02 04:15:50;;;;;;;51.72;23.40;;;;;;;8.45;100.00;99258.00;5034401;28;20033;-40
2024/03/02 04:18:16;;;;;;;56.55;24.25;;;;;;;8.48;100.00;99257.59;5034020;28;20456;-40
2024/03/02 04:20:41;;;;;;;53.65;22.40;;;;;;;8.27;100.00;99258.53;5034163;28;20112;-40
2024/03/02 04:23:07;;;;;;;50.80;22.00;;;;;;;8.35;100.00;99255.69;5033995;28;20164;-40
2024/03/02 04:25:32;;;;;;;50.25;22.10;;;;;;;8.23;100.00;99253.63;5034164;28;20049;-39
2024/03/02 04:27:58;;;;;;;51.13;21.55;;;;;;;8.27;100.00;99256.69;5034009;28;20155;-39
2024/03/02 04:30:23;;;;;;;54.70;21.65;;;;;;;8.54;100.00;99257.59;5033911;28;20072;-40
2024/03/02 04:32:49;;;;;;;51.15;21.75;;;;;;;8.63;100.00;99260.06;5034180;28;20040;-40
2024/03/02 04:35:14;;;;;;;57.38;21.65;;;;;;;8.76;100.00;99252.94;5033719;28;20037;-36
2024/03/02 04:37:39;;;;;;;52.75;21.45;;;;;;;8.60;100.00;99258.63;5033758;28;20034;-40
2024/03/02 04:40:08;;;;;;;57.75;21.70;;;;;;;8.62;100.00;99251.28;5033957;28;20029;-39
2024/03/02 04:42:34;;;;;;;60.47;22.25;;;;;;;8.55;100.00;99243.31;5047976;28;20060;-39
2024/03/02 04:45:00;;;;;;;58.10;19.92;;;;;;;8.43;100.00;99247.56;5053691;28;20412;-38
2024/03/02 04:47:25;;;;;;;54.40;21.17;;;;;;;8.35;100.00;99250.41;5052423;28;20115;-40
2024/03/02 04:49:51;;;;;;;56.95;20.08;;;;;;;8.48;100.00;99245.16;5053873;28;20031;-39
2024/03/02 04:52:17;;;;;;;54.00;20.33;;;;;;;8.32;100.00;99246.31;5053853;28;20035;-39
2024/03/02 04:57:26;;;;;;;57.47;20.05;;;;;;;8.64;100.00;99259.84;5054257;28;20105;-39
2024/03/02 04:59:51;;;;;;;55.03;21.08;;;;;;;8.77;100.00;99257.19;5052636;28;20107;-40
2024/03/02 05:02:17;;;;;;;63.25;22.02;;;;;;;8.78;100.00;99255.38;5053435;28;20033;-36
2024/03/02 05:04:42;;;;;;;58.90;20.80;;;;;;;8.63;100.00;99262.72;5053667;28;20118;-40
2024/03/02 05:07:07;;;;;;;60.60;21.52;;;;;;;8.67;100.00;99259.44;5037025;28;20449;-40
2024/03/02 05:09:33;;;;;;;55.03;20.67;;;;;;;8.48;100.00;99265.56;5033607;28;20083;-39
2024/03/02 05:12:40;;;;;;;53.25;19.85;;;;;;;8.41;100.00;99269.00;5033249;28;20021;-40
2024/03/02 05:14:44;;;;;;;53.08;19.15;;;;;;;8.46;100.00;99267.59;5033405;28;20415;-40
2024/03/02 05:17:09;;;;;;;53.15;19.20;;;;;;;8.52;100.00;99269.44;5033751;28;20434;-38
2024/03/02 05:19:34;;;;;;;56.95;19.60;;;;;;;8.49;100.00;99269.81;5033549;28;20397;-38
2024/03/02 05:22:00;;;;;;;47.83;17.73;;;;;;;8.31;100.00;99268.53;5033430;28;20033;-40
2024/03/02 05:24:27;;;;;;;48.30;18.45;;;;;;;8.27;100.00;99271.78;5033493;28;20026;-40
2024/03/02 05:26:53;;;;;;;45.22;17.48;;;;;;;8.14;100.00;99268.06;5033079;28;20088;-40
2024/03/02 05:29:18;;;;;;;45.83;18.00;;;;;;;8.34;100.00;99276.09;5033313;28;20137;-39
2024/03/02 05:31:44;;;;;;;53.88;19.98;;;;;;;8.40;100.00;99275.28;5033333;28;20036;-40
2024/03/02 05:34:09;;;;;;;53.55;20.58;;;;;;;8.46;100.00;99275.53;5033197;28;20470;-40
2024/03/02 05:36:34;;;;;;;49.83;19.23;;;;;;;8.24;100.00;99280.94;5032983;28;20079;-40
2024/03/02 05:39:00;;;;;;;45.60;18.88;;;;;;;8.33;100.00;99281.59;5033206;28;20513;-39
2024/03/02 05:41:25;;;;;;;52.78;18.98;;;;;;;8.30;100.00;99289.94;5033047;28;20024;-38
2024/03/02 05:43:51;;;;;;;52.97;19.85;;;;;;;8.48;100.00;99284.13;5033215;28;20040;-41
2024/03/02 05:46:16;;;;;;;47.03;17.90;;;;;;;8.36;100.00;99286.50;5032889;28;20053;-25
2024/03/02 05:48:41;;;;;;;47.13;19.17;;;;;;;8.54;100.00;99286.75;5033203;28;20017;-24
2024/03/02 05:51:07;;;;;;;45.33;18.52;;;;;;;8.37;100.00;99285.47;5032537;28;20021;-25
2024/03/02 05:53:32;;;;;;;46.22;18.40;;;;;;;8.27;100.00;99290.34;5032115;28;20090;-26
2024/03/02 05:55:57;;;;;;;42.53;16.92;;;;;;;8.18;100.00;99290.50;5032439;28;20118;-25
2024/03/02 06:01:28;;;;;;;39.97;16.90;;;;;;;8.19;100.00;99278.91;5010051;28;20034;-25
2024/03/02 06:03:55;;;;;;;48.33;18.13;;;;;;;8.09;100.00;99272.34;5027889;28;20460;-25
2024/03/02 06:06:20;;;;;;;41.30;17.23;;;;;;;8.25;100.00;99284.44;5042642;28;20020;-26
2024/03/02 06:08:46;;;;;;;45.40;18.10;;;;;;;8.36;100.00;99273.25;5052003;28;20017;-26
2024/03/02 06:11:11;;;;;;;38.10;17.00;;;;;;;8.47;100.00;99277.97;5051440;28;20040;-27
2024/03/02 06:13:36;;;;;;;38.17;15.68;;;;;;;8.36;100.00;99278.56;5051877;28;20052;-26
2024/03/02 06:16:02;;;;;;;34.80;15.55;;;;;;;8.39;100.00;99276.28;5051688;28;20024;-27
2024/03/02 06:18:27;;;;;;;38.20;15.45;;;;;;;8.45;100.00;99279.19;5051421;28;20044;-26
2024/03/02 06:20:53;;;;;;;34.72;15.35;;;;;;;8.48;100.00;99302.69;5051574;28;20029;-25
2024/03/02 06:23:19;;;;;;;36.28;15.95;;;;;;;8.43;100.00;99295.31;5051526;28;20021;-27
2024/03/02 06:25:44;;;;;;;40.15;16.35;;;;;;;8.46;100.00;99297.56;5051671;28;20059;-25
2024/03/02 06:28:09;;;;;;;36.95;15.70;;;;;;;8.40;100.00;99298.34;5051568;28;20567;-26
2024/03/02 06:30:35;;;;;;;32.78;14.73;;;;;;;8.41;100.00;99299.97;5051798;28;20505;-26
2024/03/02 06:33:00;;;;;;;31.42;14.43;;;;;;;8.40;100.00;99296.50;5051660;28;20028;-26
2024/03/02 06:35:26;;;;;;;31.13;14.43;;;;;;;8.33;100.00;99295.66;5051781;28;20119;-26
2024/03/02 06:37:51;;;;;;;38.70;15.48;;;;;;;8.40;100.00;99295.69;5051824;28;20180;-26
2024/03/02 06:40:16;;;;;;;32.22;14.35;;;;;;;8.12;100.00;99283.38;5051566;28;20730;-26
2024/03/02 06:42:42;;;;;;;33.95;15.13;;;;;;;8.25;100.00;99297.69;5051554;28;20028;-26
2024/03/02 06:45:07;;;;;;;33.67;14.50;;;;;;;8.57;100.00;99298.81;5051747;28;20048;-26
2024/03/02 06:47:33;;;;;;;30.30;14.02;;;;;;;8.42;100.00;99301.66;5051242;28;20401;-26
2024/03/02 06:49:58;;;;;;;32.30;14.25;;;;;;;8.39;100.00;99308.13;5051250;28;20351;-27
2024/03/02 06:52:24;;;;;;;35.35;14.50;;;;;;;8.53;100.00;99313.47;5051314;28;20028;-26
2024/03/02 06:54:49;;;;;;;30.75;13.10;;;;;;;8.34;100.00;99322.97;5051246;28;20025;-34
2024/03/02 06:57:16;;;;;;;32.47;14.27;;;;;;;8.34;100.00;99326.47;5051128;28;20029;-40
2024/03/02 06:59:42;;;;;;;33.60;14.57;;;;;;;8.32;100.00;99327.66;5050990;28;20098;-40
2024/03/02 07:02:08;;;;;;;31.05;13.82;;;;;;;8.56;100.00;99327.16;5051077;28;20619;-39
2024/03/02 07:04:34;;;;;;;28.35;13.30;;;;;;;8.39;100.00;99310.75;5051188;28;20042;-37
2024/03/02 07:06:59;;;;;;;26.90;12.75;;;;;;;8.44;100.00;99320.00;5050918;28;20370;-41
2024/03/02 07:09:25;;;;;;;26.63;12.88;;;;;;;8.15;100.00;99320.09;5051274;28;20033;-40
2024/03/02 07:11:51;;;;;;;27.60;13.07;;;;;;;8.48;100.00;99314.09;5051123;28;20049;-40
2024/03/02 07:14:16;;;;;;;30.63;13.60;;;;;;;8.63;100.00;99303.31;5043954;28;20540;-27
2024/03/02 07:16:43;;;;;;;26.08;12.05;;;;;;;8.56;100.00;99295.34;5049335;28;20021;-26
2024/03/02 07:19:08;;;;;;;29.92;13.68;;;;;;;8.58;100.00;99303.91;5050917;28;20031;-26
2024/03/02 07:21:34;;;;;;;31.85;14.50;;;;;;;8.61;100.00;99306.16;5050666;28;20104;-27
2024/03/02 07:24:00;;;;;;;33.70;14.82;;;;;;;8.65;100.00;99309.25;5051241;28;20366;-27
2024/03/02 07:26:26;;;;;;;33.10;15.50;;;;;;;8.83;100.00;99313.94;5051216;28;20076;-27
2024/03/02 07:28:51;;;;;;;30.23;13.73;;;;;;;8.84;100.00;99320.91;5051481;28;20048;-28
2024/03/02 07:31:17;;;;;;;34.05;13.70;;;;;;;8.66;100.00;99320.66;5050239;28;20025;-25
2024/03/02 07:33:46;;;;;;;31.65;14.10;;;;;;;8.70;100.00;99321.88;5051118;28;20389;-27
2024/03/02 07:36:12;;;;;;;28.05;12.73;;;;;;;8.60;100.00;99320.47;5050945;28;20025;-26
2024/03/02 07:38:38;;;;;;;28.42;13.85;;;;;;;8.94;100.00;99334.56;5050844;28;20100;-26
2024/03/02 07:41:04;;;;;;;32.80;14.75;;;;;;;8.95;100.00;99330.91;5050286;28;20105;-27
2024/03/02 07:43:30;;;;;;;32.53;13.70;;;;;;;8.92;100.00;99326.00;5050808;28;20527;-28
2024/03/02 07:45:56;;;;;;;28.02;13.23;;;;;;;9.02;99.85;99330.09;5050403;28;20094;-26
2024/03/02 07:48:21;;;;;;;28.27;12.90;;;;;;;8.87;100.00;99324.97;5050918;28;20029;-27
2024/03/02 07:50:46;;;;;;;24.52;12.35;;;;;;;8.82;100.00;99316.81;5050640;28;20063;-27
2024/03/02 07:53:12;;;;;;;30.05;13.00;;;;;;;8.88;100.00;99322.13;5050922;28;20078;-26
2024/03/02 07:55:37;;;;;;;27.65;13.20;;;;;;;8.90;100.00;99321.94;5050991;28;20048;-27
2024/03/02 07:58:03;;;;;;;25.40;13.18;;;;;;;9.07;98.76;99317.03;5050484;28;20396;-26
2024/03/02 08:00:28;;;;;;;27.23;12.93;;;;;;;9.38;96.99;99340.31;5050703;28;20017;-26
2024/03/02 08:02:53;;;;;;;26.00;12.57;;;;;;;8.98;97.61;99343.75;5051142;28;20036;-26
2024/03/02 08:05:20;;;;;;;25.30;12.90;;;;;;;9.03;100.00;99343.19;5050991;28;20029;-27
2024/03/02 08:07:46;;;;;;;28.73;13.85;;;;;;;9.78;100.00;99345.56;5050595;28;20021;-26
2024/03/02 08:10:12;;;;;;;29.67;13.38;;;;;;;10.06;100.00;99341.81;5050551;28;20154;-26
2024/03/02 08:12:38;;;;;;;24.60;12.85;;;;;;;10.40;100.00;99342.53;5050457;28;20032;-26
2024/03/02 08:15:04;;;;;;;25.15;12.32;;;;;;;10.62;95.79;99332.38;5050210;28;20025;-26
2024/03/02 08:17:30;;;;;;;20.50;11.35;;;;;;;10.14;93.06;99337.06;5050353;28;20032;-26
2024/03/02 08:19:55;;;;;;;22.65;12.02;;;;;;;9.85;91.25;99334.94;5050682;28;20025;-27
2024/03/02 08:22:21;;;;;;;20.42;11.20;;;;;;;9.58;93.60;99329.69;5050489;28;20517;-26
2024/03/02 08:24:47;;;;;;;23.98;11.57;;;;;;;9.44;95.95;99328.03;5050328;28;20032;-27
2024/03/02 08:27:12;;;;;;;23.80;12.48;;;;;;;9.89;95.91;99317.53;5050280;28;20110;-27
2024/03/02 08:29:38;;;;;;;29.45;13.52;;;;;;;10.00;96.31;99321.41;5050242;28;20021;-26
2024/03/02 08:32:05;;;;;;;22.10;11.05;;;;;;;9.68;95.14;99330.06;5048621;28;20504;-26
2024/03/02 08:34:30;;;;;;;24.50;13.10;;;;;;;9.62;95.57;99330.09;5052913;28;20122;-27
2024/03/02 08:36:55;;;;;;;23.02;12.52;;;;;;;9.47;96.98;99322.34;5053842;28;20155;-27
2024/03/02 08:39:21;;;;;;;25.48;12.73;;;;;;;9.39;96.92;99334.00;5053836;28;20032;-26
2024/03/02 08:41:47;;;;;;;22.58;11.50;;;;;;;9.32;99.26;99341.94;5054424;28;20013;-27
2024/03/02 08:44:13;;;;;;;22.23;11.88;;;;;;;9.30;98.64;99337.88;5053850;28;20021;-27
2024/03/02 08:46:39;;;;;;;25.40;11.82;;;;;;;9.23;98.43;99332.53;5054079;28;20128;-27
2024/03/02 08:49:05;;;;;;;24.63;12.07;;;;;;;9.23;98.25;99321.13;5053817;28;20048;-26
2024/03/02 08:51:30;;;;;;;20.33;11.45;;;;;;;9.18;98.50;99317.25;5053325;28;20162;-27
2024/03/02 08:53:56;;;;;;;25.80;12.75;;;;;;;9.26;99.47;99324.19;5045793;28;20111;-27
2024/03/02 08:56:23;;;;;;;29.58;13.07;;;;;;;9.26;98.93;99316.22;5044056;28;20024;-26
2024/03/02 08:58:49;;;;;;;31.02;13.43;;;;;;;9.24;100.00;99330.72;5041956;28;20100;-27
2024/03/02 09:01:14;;;;;;;31.30;13.77;;;;;;;9.37;99.51;99326.22;5044409;28;20115;-28
2024/03/02 09:03:41;;;;;;;33.75;13.48;;;;;;;9.36;97.73;99321.13;5045525;28;20473;-26
2024/03/02 09:06:06;;;;;;;29.80;14.10;;;;;;;9.32;99.10;99330.50;5045694;28;20032;-28
2024/03/02 09:08:31;;;;;;;34.55;14.90;;;;;;;9.27;97.48;99327.66;5045130;28;20013;-27
2024/03/02 09:10:57;;;;;;;31.52;14.30;;;;;;;9.39;96.57;99329.47;5053521;28;20055;-27
2024/03/02 09:13:22;;;;;;;26.95;13.90;;;;;;;9.13;97.98;99322.34;5050990;28;20032;-27
2024/03/02 09:15:48;;;;;;;35.97;14.57;;;;;;;9.13;99.73;99324.19;5046324;28;20439;-28
2024/03/02 09:18:13;;;;;;;29.98;13.88;;;;;;;9.23;97.39;99329.91;5053116;28;20033;-27
2024/03/02 09:20:39;;;;;;;32.92;14.27;;;;;;;9.15;97.67;99325.59;5052787;28;20044;-27
2024/03/02 09:23:04;;;;;;;29.10;14.88;;;;;;;9.38;97.67;99340.31;5052142;28;20064;-27
2024/03/02 09:25:29;;;;;;;39.67;15.13;;;;;;;9.47;98.32;99338.28;5051786;28;20133;-28
2024/03/02 09:27:55;;;;;;;37.45;15.98;;;;;;;9.42;98.30;99332.75;5042990;28;20021;-26
2024/03/02 09:30:20;;;;;;;35.05;15.90;;;;;;;9.70;96.96;99335.16;5032122;28;20025;-28
2024/03/02 09:32:46;;;;;;;38.83;16.45;;;;;;;9.42;99.02;99332.75;5051706;28;20471;-28
2024/03/02 09:35:11;;;;;;;33.95;15.50;;;;;;;9.39;98.56;99340.09;5051503;28;20025;-27
2024/03/02 09:37:37;;;;;;;35.97;15.95;;;;;;;9.42;98.08;99338.88;5044487;28;20025;-26
2024/03/02 09:40:03;;;;;;;31.98;15.35;;;;;;;9.24;97.77;99344.81;5046990;28;20028;-26
2024/03/02 09:42:29;;;;;;;34.20;15.98;;;;;;;9.41;98.28;99333.78;5052479;28;20235;-27
2024/03/02 09:44:55;;;;;;;33.65;16.15;;;;;;;9.42;98.66;99338.06;5050495;28;20298;-27
2024/03/02 09:47:20;;;;;;;37.25;15.38;;;;;;;9.37;98.02;99350.13;5037895;28;20089;-27
2024/03/02 09:49:45;;;;;;;36.47;16.38;;;;;;;9.43;99.50;99343.19;5041895;28;20028;-27
2024/03/02 09:52:13;;;;;;;35.17;16.50;;;;;;;9.38;98.42;99338.47;5052614;28;20028;-28
2024/03/02 09:54:38;;;;;;;38.53;16.30;;;;;;;9.38;98.13;99340.31;5052543;28;20059;-27
2024/03/02 09:57:04;;;;;;;34.78;15.75;;;;;;;9.38;99.35;99342.97;5052366;28;20118;-29
2024/03/02 09:59:29;;;;;;;36.03;16.33;;;;;;;9.42;98.63;99341.53;5052576;28;20029;-27
2024/03/02 10:01:58;;;;;;;34.13;16.20;;;;;;;10.71;100.00;99326.59;5052639;28;20040;-28
2024/03/02 10:04:28;;;;;;;33.20;15.75;;;;;;;10.48;93.66;99327.13;5052582;28;20079;-27
2024/03/02 10:07:17;;;;;;;39.83;16.27;;;;;;;10.37;92.83;99327.81;5048099;28;20416;-28
2024/03/02 10:09:44;;;;;;;31.35;14.70;;;;;;;10.32;91.56;99319.66;5037075;28;20108;-27
2024/03/02 10:12:11;;;;;;;33.50;15.02;;;;;;;10.48;98.76;99329.81;5045818;28;20034;-28
2024/03/02 10:14:37;;;;;;;34.75;16.05;;;;;;;10.27;94.64;99328.22;5038263;28;20354;-27
2024/03/02 10:17:04;;;;;;;35.42;16.20;;;;;;;10.12;96.58;99317.03;5032036;28;20091;-29
2024/03/02 10:19:34;;;;;;;30.80;15.45;;;;;;;10.04;95.80;99330.59;5032366;28;20028;-28
2024/03/02 10:22:03;;;;;;;40.50;17.00;;;;;;;10.26;95.29;99328.44;5032587;28;20025;-28
2024/03/02 10:24:39;;;;;;;38.22;16.98;;;;;;;10.10;96.76;99322.56;5032332;28;20041;-29
2024/03/02 10:27:26;;;;;;;37.83;16.95;;;;;;;10.33;95.29;99321.28;5032253;28;20060;-27
2024/03/02 10:29:51;;;;;;;35.08;16.98;;;;;;;10.13;96.23;99326.66;5032167;28;20029;-29
2024/03/02 10:32:17;;;;;;;36.83;17.50;;;;;;;9.88;98.10;99319.41;5032332;28;20075;-27
2024/03/02 10:34:44;;;;;;;36.40;17.38;;;;;;;10.17;95.60;99309.25;5032202;28;20114;-28
2024/03/02 10:37:11;;;;;;;35.28;17.77;;;;;;;10.41;93.08;99312.25;5031936;28;20437;-28
2024/03/02 10:39:39;;;;;;;36.28;16.67;;;;;;;10.46;93.49;99313.22;5030266;28;20017;-27
2024/03/02 10:42:05;;;;;;;35.33;16.45;;;;;;;10.41;93.11;99307.72;5030980;28;20112;-28
2024/03/02 10:44:32;;;;;;;33.50;16.35;;;;;;;10.07;95.14;99299.09;5031720;28;20063;-27
2024/03/02 10:47:01;;;;;;;32.55;16.65;;;;;;;10.28;93.97;99297.13;5031758;28;20021;-27
2024/03/02 10:49:27;;;;;;;40.43;17.90;;;;;;;10.21;94.49;99285.72;5051873;28;20041;-27
2024/03/02 10:51:53;;;;;;;35.75;17.33;;;;;;;10.31;93.46;99288.75;5051994;28;20260;-27
2024/03/02 10:54:18;;;;;;;40.42;18.00;;;;;;;10.56;94.01;99292.28;5051739;28;20079;-27
2024/03/02 10:56:46;;;;;;;41.40;18.00;;;;;;;10.34;94.34;99278.53;5050765;28;20100;-28
2024/03/02 10:59:14;;;;;;;35.80;17.65;;;;;;;10.26;95.15;99289.38;5051429;28;20045;-26
2024/03/02 11:01:42;;;;;;;33.85;17.00;;;;;;;10.23;94.36;99283.66;5051632;28;20031;-27
2024/03/02 11:04:10;;;;;;;35.10;17.58;;;;;;;10.16;94.59;99273.06;5051893;28;20021;-28
2024/03/02 11:06:38;;;;;;;38.03;19.27;;;;;;;10.35;94.01;99280.13;5051451;28;20458;-26
2024/03/02 11:09:09;;;;;;;37.92;18.90;;;;;;;10.60;92.56;99273.25;5052182;28;20116;-28
2024/03/02 11:11:42;;;;;;;36.00;18.15;;;;;;;10.48;91.12;99267.81;5051757;28;20043;-26
2024/03/02 11:14:21;;;;;;;35.13;18.02;;;;;;;10.49;91.74;99262.28;5051534;28;20021;-27
2024/03/02 11:16:47;;;;;;;35.08;17.92;;;;;;;10.19;93.94;99269.97;5051556;28;20021;-30
2024/03/02 11:19:15;;;;;;;37.08;18.45;;;;;;;10.30;92.40;99257.84;5051095;28;20036;-27